Alaska Titan — WDE4789 — position and weather

sailwx.info

Track history (hours):
 
Tides and Currents Weather Stations Pressure Air Temp Water Temp Dewpoint Dewpoint Depression Visibility Wind Speed Wind Dir Waves Ship Positions

Alaska Titan

More information available from US FCC via Universal Licensing System and Coast Guard Vessel Documentation Center.

Last reported at 2014-Sep-02 21:38 UTC. Time now 2014-Sep-02 23:52 UTC.
Position N 47°39' W 122°22'.

Length 40 m; draft 6 m.

Type: Tow > 200 m length. MMSI: 367357000.

Date/timePositionNaut miles runAvg speedWind from/ knotsBaromVisibWave heightAir tempDewpointWater temp
2014-Sep-02 21:38N 47°39' W 122°22'0 1.9
2014-Sep-02 21:33N 47°39' W 122°22'0 0.0
2014-Sep-02 21:33N 47°39' W 122°22'2 1.6
2014-Sep-02 20:33N 47°40' W 122°24'0 0.0
2014-Sep-02 20:33N 47°40' W 122°24'0 0.0
2014-Sep-02 19:34N 47°40' W 122°24'0 0.6
2014-Sep-02 19:33N 47°40' W 122°24'3 2.9
2014-Sep-02 18:33N 47°43' W 122°25'0 3.3
2014-Sep-02 18:33N 47°43' W 122°25'  
2014-Aug-28 02:33N 47°40' W 122°23'3 2.5
2014-Aug-28 01:34N 47°38' W 122°26'4 4.3
2014-Aug-28 00:33N 47°35' W 122°21'0 0.4
2014-Aug-27 23:34N 47°36' W 122°22'5 4.9
2014-Aug-27 22:33N 47°39' W 122°28'4 4.3
2014-Aug-27 21:33N 47°43' W 122°29'9 9.5
2014-Aug-27 20:33N 47°52' W 122°29'9 9.0
2014-Aug-27 19:33N 47°60' W 122°37'25 7.4
2014-Aug-27 16:07N 48°25' W 122°45'611.1
2014-Aug-27 15:33N 48°31' W 122°45'1010.1
2014-Aug-27 14:33N 48°41' W 122°44'9 9.4
2014-Aug-27 13:33N 48°47' W 122°54'10 9.9
2014-Aug-27 12:33N 48°53' W 123°07'10 9.6
2014-Aug-27 11:33N 48°59' W 123°18'9 9.3
2014-Aug-27 10:33N 49°06' W 123°28'10 9.9
2014-Aug-27 09:33N 49°13' W 123°39'1010.0
2014-Aug-27 08:33N 49°19' W 123°51'10 9.9
2014-Aug-27 07:33N 49°25' W 124°02'1410.1
2014-Aug-27 06:09N 49°33' W 124°20'9 9.8
2014-Aug-27 05:11N 49°38' W 124°32'97 9.6
2014-Aug-26 19:04N 50°32' W 126°39'5 8.9
2014-Aug-26 18:33N 50°36' W 126°43'11 9.7
2014-Aug-26 17:23N 50°42' W 126°57'8 9.6
2014-Aug-26 16:32N 50°46' W 127°09'10 9.8
2014-Aug-26 15:33N 50°52' W 127°20'8 8.4
2014-Aug-26 14:33N 50°58' W 127°30'8 8.4
2014-Aug-26 13:33N 51°03' W 127°40'9 8.6
2014-Aug-26 12:33N 51°09' W 127°51'13 9.6
2014-Aug-26 11:10N 51°22' W 127°58'  
2014-Aug-24 03:27N 58°12' W 135°23'910.0
2014-Aug-24 02:32N 58°16' W 135°38'8 8.0
2014-Aug-24 01:33N 58°17' W 135°53'8 8.1
2014-Aug-24 00:32N 58°15' W 136°08'  
Track history (hours):
 
Tides and Currents Weather Stations Pressure Air Temp Water Temp Dewpoint Dewpoint Depression Visibility Wind Speed Wind Dir Waves Ship Positions

Alaska Titan

More information available from US FCC via Universal Licensing System and Coast Guard Vessel Documentation Center.

Last reported at 2014-Sep-02 21:38 UTC. Time now 2014-Sep-02 23:52 UTC.
Position N 47°39' W 122°22'.

Length 40 m; draft 6 m.

Type: Tow > 200 m length. MMSI: 367357000.

Date/timePositionNaut miles runAvg speedWind from/ knotsBaromVisibWave heightAir tempDewpointWater temp
2014-Sep-02 21:38N 47°39' W 122°22'0 1.9
2014-Sep-02 21:33N 47°39' W 122°22'0 0.0
2014-Sep-02 21:33N 47°39' W 122°22'2 1.6
2014-Sep-02 20:33N 47°40' W 122°24'0 0.0
2014-Sep-02 20:33N 47°40' W 122°24'0 0.0
2014-Sep-02 19:34N 47°40' W 122°24'0 0.6
2014-Sep-02 19:33N 47°40' W 122°24'3 2.9
2014-Sep-02 18:33N 47°43' W 122°25'0 3.3
2014-Sep-02 18:33N 47°43' W 122°25'  
2014-Aug-28 02:33N 47°40' W 122°23'3 2.5
2014-Aug-28 01:34N 47°38' W 122°26'4 4.3
2014-Aug-28 00:33N 47°35' W 122°21'0 0.4
2014-Aug-27 23:34N 47°36' W 122°22'5 4.9
2014-Aug-27 22:33N 47°39' W 122°28'4 4.3
2014-Aug-27 21:33N 47°43' W 122°29'9 9.5
2014-Aug-27 20:33N 47°52' W 122°29'9 9.0
2014-Aug-27 19:33N 47°60' W 122°37'25 7.4
2014-Aug-27 16:07N 48°25' W 122°45'611.1
2014-Aug-27 15:33N 48°31' W 122°45'1010.1
2014-Aug-27 14:33N 48°41' W 122°44'9 9.4
2014-Aug-27 13:33N 48°47' W 122°54'10 9.9
2014-Aug-27 12:33N 48°53' W 123°07'10 9.6
2014-Aug-27 11:33N 48°59' W 123°18'9 9.3
2014-Aug-27 10:33N 49°06' W 123°28'10 9.9
2014-Aug-27 09:33N 49°13' W 123°39'1010.0
2014-Aug-27 08:33N 49°19' W 123°51'10 9.9
2014-Aug-27 07:33N 49°25' W 124°02'1410.1
2014-Aug-27 06:09N 49°33' W 124°20'9 9.8
2014-Aug-27 05:11N 49°38' W 124°32'97 9.6
2014-Aug-26 19:04N 50°32' W 126°39'5 8.9
2014-Aug-26 18:33N 50°36' W 126°43'11 9.7
2014-Aug-26 17:23N 50°42' W 126°57'8 9.6
2014-Aug-26 16:32N 50°46' W 127°09'10 9.8
2014-Aug-26 15:33N 50°52' W 127°20'8 8.4
2014-Aug-26 14:33N 50°58' W 127°30'8 8.4
2014-Aug-26 13:33N 51°03' W 127°40'9 8.6
2014-Aug-26 12:33N 51°09' W 127°51'13 9.6
2014-Aug-26 11:10N 51°22' W 127°58'  
2014-Aug-24 03:27N 58°12' W 135°23'910.0
2014-Aug-24 02:32N 58°16' W 135°38'8 8.0
2014-Aug-24 01:33N 58°17' W 135°53'8 8.1
2014-Aug-24 00:32N 58°15' W 136°08'  

Dump ship's entire track history